Time;durP1;ratioP1;P1;durP2;ratioP2;P2;SDS_P1;SDS_P2;PMS_P1;PMS_P2;Temp;Humidity;BMP_temperature;BMP_pressure;BME280_temperature;BME280_humidity;BME280_pressure;Samples;Min_cycle;Max_cycle;Signal;HPM_P1;HPM_P2
2022/01/28 05:11:03;;;;;;;6.57;4.10;;;;;;;3.43;77.86;100617.69;6493296;27;151085;-82
2022/01/28 05:24:10;;;;;;;6.50;4.18;;;;;;;3.22;78.99;100612.31;6498810;27;34666;-82
2022/01/28 05:27:11;;;;;;;4.03;3.33;;;;;;;3.24;79.10;100633.47;6500229;27;34076;-82
2022/01/28 05:30:14;;;;;;;5.00;3.72;;;;;;;3.28;78.80;100632.25;6502114;27;34144;-81
2022/01/28 05:33:17;;;;;;;5.28;3.40;;;;;;;3.29;78.54;100640.09;6502590;27;34074;-81
2022/01/28 05:36:20;;;;;;;3.97;3.53;;;;;;;3.26;78.60;100640.34;6500562;27;34348;-82
2022/01/28 05:39:23;;;;;;;4.12;3.10;;;;;;;3.38;78.05;100634.03;6498888;27;34803;-81
2022/01/28 05:42:29;;;;;;;3.40;3.10;;;;;;;3.37;78.16;100642.16;6497859;27;33959;-80
2022/01/28 05:45:32;;;;;;;3.20;2.80;;;;;;;3.36;78.22;100638.66;6498516;27;33667;-80
2022/01/28 05:48:35;;;;;;;3.08;2.78;;;;;;;3.27;78.63;100652.69;6502257;27;35974;-81
2022/01/28 05:51:38;;;;;;;5.03;3.40;;;;;;;3.26;79.10;100669.62;6498284;27;34381;-80
2022/01/28 05:54:41;;;;;;;4.30;3.20;;;;;;;3.35;78.91;100663.56;6499061;27;33967;-80
2022/01/28 05:57:44;;;;;;;4.75;3.00;;;;;;;3.55;78.38;100667.25;6499288;27;34000;-82
2022/01/28 06:00:47;;;;;;;4.47;3.25;;;;;;;3.54;78.42;100665.56;6499312;27;33748;-80
2022/01/28 06:03:50;;;;;;;5.37;3.40;;;;;;;3.53;78.30;100689.66;6500480;27;34044;-84
2022/01/28 06:06:53;;;;;;;3.40;3.05;;;;;;;3.55;78.24;100688.56;6500263;27;33945;-81
2022/01/28 06:09:56;;;;;;;4.70;3.30;;;;;;;3.51;78.66;100688.91;6499173;27;34575;-82
2022/01/28 06:12:58;;;;;;;3.53;3.20;;;;;;;3.53;78.47;100681.66;6498974;27;33945;-82
2022/01/28 06:16:01;;;;;;;5.12;3.72;;;;;;;3.48;78.69;100675.84;6499432;27;34774;-82
2022/01/28 06:19:04;;;;;;;3.80;3.20;;;;;;;3.40;79.09;100689.81;6499433;27;35103;-81
2022/01/28 06:22:07;;;;;;;5.70;3.50;;;;;;;3.52;78.84;100687.97;6499412;27;33768;-82
2022/01/28 06:25:13;;;;;;;3.58;3.00;;;;;;;3.72;77.75;100697.00;6499083;27;34678;-82
2022/01/28 06:28:16;;;;;;;5.55;3.47;;;;;;;3.81;77.96;100718.37;6513746;27;33690;-81
2022/01/28 06:31:19;;;;;;;3.67;3.28;;;;;;;3.97;76.79;100715.28;6511543;27;34514;-81
2022/01/28 06:34:24;;;;;;;4.37;3.28;;;;;;;4.00;nan;100714.19;6497489;27;33555;-81
2022/01/28 06:37:27;;;;;;;3.25;3.00;;;;;;;4.11;76.37;100723.97;6501088;27;34050;-82
2022/01/28 06:40:30;;;;;;;3.40;3.10;;;;;;;4.26;75.01;100728.84;6502526;27;35680;-82
2022/01/28 06:43:33;;;;;;;3.65;3.05;;;;;;;4.31;74.58;100707.16;6503455;27;34536;-82
2022/01/28 06:46:36;;;;;;;3.25;2.95;;;;;;;4.42;74.11;100716.91;6495923;27;33978;-82
2022/01/28 06:49:39;;;;;;;3.25;2.95;;;;;;;4.50;73.06;100709.97;6497683;27;34175;-82
2022/01/28 06:52:42;;;;;;;4.70;2.70;;;;;;;4.60;72.69;100706.50;6497399;27;33703;-81
2022/01/28 06:55:45;;;;;;;3.10;2.80;;;;;;;4.63;71.75;100693.75;6498565;27;35484;-84
2022/01/28 06:58:48;;;;;;;2.85;2.65;;;;;;;4.67;71.71;100707.66;6502076;27;33507;-83
2022/01/28 07:02:05;;;;;;;3.00;2.58;;;;;;;4.71;70.80;100699.28;6514958;27;34385;-82
2022/01/28 07:05:15;;;;;;;4.53;2.75;;;;;;;4.76;70.41;100694.37;6511280;27;34063;-82
2022/01/28 07:08:58;;;;;;;2.70;2.40;;;;;;;4.87;69.90;100696.09;6513890;27;34715;-82
2022/01/28 07:12:27;;;;;;;2.87;2.62;;;;;;;4.87;70.16;100673.94;6502762;27;32144;-83
2022/01/28 07:15:30;;;;;;;3.62;2.70;;;;;;;4.91;68.69;100684.19;6500881;27;34216;-82
2022/01/28 07:18:33;;;;;;;2.72;2.45;;;;;;;4.93;68.99;100686.72;6507345;27;34040;-83
2022/01/28 07:21:36;;;;;;;3.53;2.72;;;;;;;4.98;67.26;100695.19;6515956;27;35405;-81
2022/01/28 07:24:38;;;;;;;3.92;2.45;;;;;;;4.96;66.96;100707.81;6504130;27;33966;-81
2022/01/28 07:27:42;;;;;;;3.65;2.47;;;;;;;5.05;66.64;100715.00;6504847;27;34159;-82
2022/01/28 07:30:44;;;;;;;2.30;2.10;;;;;;;5.12;66.41;100712.63;6499080;27;34324;-82
2022/01/28 07:33:48;;;;;;;3.17;2.60;;;;;;;5.43;65.03;100702.78;6498733;27;34313;-82
2022/01/28 07:36:51;;;;;;;4.57;2.42;;;;;;;5.93;62.86;100702.75;6501153;27;34180;-82
2022/01/28 07:39:55;;;;;;;3.37;2.45;;;;;;;6.09;61.31;100700.38;6501318;27;34316;-81
2022/01/28 07:42:58;;;;;;;4.57;2.60;;;;;;;6.20;61.32;100704.75;6498537;27;33644;-81
2022/01/28 07:46:04;;;;;;;10.60;4.03;;;;;;;6.26;60.76;100700.63;6499703;27;34769;-81
2022/01/28 07:49:08;;;;;;;6.78;2.20;;;;;;;6.14;61.07;100697.25;6498860;27;34182;-81
2022/01/28 07:52:11;;;;;;;3.28;1.87;;;;;;;5.87;60.96;100685.41;6499115;27;34944;-82
2022/01/28 07:55:18;;;;;;;3.50;2.05;;;;;;;5.91;60.45;100689.50;6500215;27;34002;-82
2022/01/28 07:58:22;;;;;;;2.22;2.03;;;;;;;5.87;60.47;100687.25;6499508;27;34443;-82
2022/01/28 08:01:25;;;;;;;3.35;2.00;;;;;;;5.96;59.65;100702.47;6499432;27;33957;-83
2022/01/28 08:04:28;;;;;;;5.57;2.15;;;;;;;5.98;59.74;100703.19;6499346;27;35599;-82
2022/01/28 08:07:31;;;;;;;7.07;2.20;;;;;;;5.96;59.18;100697.13;6500013;27;34069;-82
2022/01/28 08:10:35;;;;;;;5.70;2.37;;;;;;;6.27;58.53;100694.31;6498773;27;33670;-82
2022/01/28 08:13:37;;;;;;;7.85;2.30;;;;;;;6.26;57.36;100700.63;6498561;27;34553;-82
2022/01/28 08:16:40;;;;;;;5.68;2.65;;;;;;;6.33;57.10;100701.75;6499494;27;34732;-82
2022/01/28 08:19:44;;;;;;;3.80;2.20;;;;;;;6.46;56.44;100712.97;6499535;27;34165;-82
2022/01/28 08:22:52;;;;;;;3.97;2.08;;;;;;;6.39;56.40;100697.69;6499552;27;34177;-83
2022/01/28 08:25:55;;;;;;;9.80;1.90;;;;;;;6.25;57.11;100674.87;6500812;27;34125;-82
2022/01/28 08:28:58;;;;;;;3.22;1.80;;;;;;;6.39;56.26;100674.44;6507554;27;33824;-81
2022/01/28 08:32:01;;;;;;;10.82;2.10;;;;;;;6.31;55.86;100688.53;6512085;27;34251;-84
2022/01/28 08:35:06;;;;;;;5.20;1.80;;;;;;;6.29;55.66;100666.44;6501087;27;34326;-89
2022/01/28 08:38:15;;;;;;;8.98;1.90;;;;;;;6.24;55.37;100674.03;6499235;27;35501;-87
2022/01/28 08:41:19;;;;;;;7.43;2.10;;;;;;;6.07;55.13;100664.06;6499454;27;33981;-87
2022/01/28 08:44:21;;;;;;;4.35;1.77;;;;;;;6.03;55.23;100673.38;6551569;27;37083;-86
2022/01/28 08:47:24;;;;;;;3.75;1.65;;;;;;;6.22;54.52;100672.50;6557275;27;33882;-87
2022/01/28 08:50:27;;;;;;;4.82;1.80;;;;;;;6.26;54.12;100680.09;6555551;27;33827;-86
2022/01/28 08:53:31;;;;;;;4.25;2.10;;;;;;;6.32;53.58;100676.03;6551859;27;35061;-86
2022/01/28 08:56:34;;;;;;;6.40;1.73;;;;;;;6.41;53.25;100682.34;6552284;27;33856;-86
2022/01/28 08:59:56;;;;;;;6.53;2.20;;;;;;;6.28;52.96;100693.31;6552300;27;34771;-86
2022/01/28 09:02:58;;;;;;;4.45;2.37;;;;;;;6.47;52.53;100720.03;6556437;27;35050;-86
2022/01/28 09:06:01;;;;;;;7.10;2.08;;;;;;;6.37;52.32;100711.16;6552886;27;34106;-90
2022/01/28 09:09:05;;;;;;;12.73;1.87;;;;;;;6.41;51.99;100717.94;6562384;27;34205;-90
2022/01/28 09:12:27;;;;;;;7.87;1.73;;;;;;;6.43;51.84;100683.03;6573175;27;35473;-88
2022/01/28 09:15:31;;;;;;;4.05;1.90;;;;;;;6.47;51.76;100704.00;6548602;27;35563;-89
2022/01/28 09:18:34;;;;;;;11.73;2.03;;;;;;;6.48;51.19;100680.75;6543838;27;35558;-87
2022/01/28 09:21:37;;;;;;;9.10;1.83;;;;;;;6.43;51.13;100697.22;6526864;27;33256;-87
2022/01/28 09:24:40;;;;;;;9.25;1.80;;;;;;;6.49;50.97;100674.41;6525579;27;33556;-87
2022/01/28 09:27:43;;;;;;;2.00;1.33;;;;;;;6.55;51.26;100690.75;6527088;27;34707;-88
2022/01/28 09:30:46;;;;;;;5.68;1.67;;;;;;;6.45;51.48;100722.00;6524334;27;34148;-87
2022/01/28 09:33:49;;;;;;;7.47;1.50;;;;;;;6.67;50.84;100722.66;6525193;27;35432;-85
2022/01/28 09:36:53;;;;;;;4.45;2.05;;;;;;;6.68;50.99;100740.44;6525845;27;34299;-88
2022/01/28 09:39:56;;;;;;;8.07;1.70;;;;;;;6.63;51.83;100716.75;6526324;27;34690;-88
2022/01/28 09:43:04;;;;;;;7.37;1.80;;;;;;;6.90;51.07;100702.59;6525203;27;33706;-87
2022/01/28 09:46:07;;;;;;;6.25;1.70;;;;;;;6.83;51.12;100685.44;6525752;27;34046;-87
2022/01/28 09:49:11;;;;;;;5.53;1.52;;;;;;;6.82;51.11;100694.47;6524783;27;33928;-87
2022/01/28 09:52:14;;;;;;;3.33;1.40;;;;;;;6.91;50.96;100704.31;6525587;27;33992;-87
2022/01/28 09:55:19;;;;;;;5.20;1.67;;;;;;;6.82;50.96;100716.72;6532182;27;33763;-88
2022/01/28 09:58:21;;;;;;;7.15;1.62;;;;;;;6.79;50.73;100709.00;6540283;27;35430;-86
2022/01/28 10:01:26;;;;;;;5.47;1.80;;;;;;;6.93;49.89;100702.34;6526521;27;34819;-90
2022/01/28 10:04:29;;;;;;;7.60;1.90;;;;;;;7.02;49.75;100720.19;6524275;27;33856;-85
2022/01/28 10:07:32;;;;;;;2.40;1.40;;;;;;;7.08;49.29;100716.09;6524711;27;35417;-86
2022/01/28 10:10:42;;;;;;;3.75;1.30;;;;;;;7.15;48.66;100727.03;6523852;27;34838;-87
2022/01/28 10:13:50;;;;;;;3.40;1.40;;;;;;;7.12;48.31;100741.56;6523864;27;34882;-88
2022/01/28 10:16:55;;;;;;;5.07;1.70;;;;;;;7.26;48.12;100734.91;6523835;27;34079;-87
2022/01/28 10:20:06;;;;;;;3.47;1.42;;;;;;;7.37;47.27;100736.53;6525327;27;33602;-86
2022/01/28 10:23:12;;;;;;;4.93;1.55;;;;;;;7.46;46.95;100754.41;6524742;27;34750;-86
2022/01/28 10:26:26;;;;;;;8.07;2.47;;;;;;;7.39;46.92;100762.16;6524045;27;33940;-86
2022/01/28 10:29:32;;;;;;;2.20;1.40;;;;;;;7.35;47.03;100749.25;6524870;27;34409;-86
2022/01/28 10:32:37;;;;;;;7.62;1.70;;;;;;;7.19;47.61;100737.31;6525613;27;34195;-86
2022/01/28 10:36:07;;;;;;;7.43;1.75;;;;;;;7.21;48.17;100747.88;6525999;27;34111;-86
2022/01/28 10:39:19;;;;;;;9.27;1.80;;;;;;;7.15;47.84;100735.06;6527310;27;33994;-88
2022/01/28 10:42:25;;;;;;;7.35;1.62;;;;;;;7.28;47.17;100727.53;6525730;27;34053;-86
2022/01/28 10:45:31;;;;;;;3.83;1.35;;;;;;;7.41;46.44;100745.97;6525125;27;33937;-86
2022/01/28 10:48:50;;;;;;;7.53;1.62;;;;;;;7.41;46.69;100730.72;6526083;27;34091;-86
2022/01/28 10:51:53;;;;;;;4.80;1.52;;;;;;;7.61;46.21;100727.97;6524811;27;33769;-86
2022/01/28 10:54:56;;;;;;;6.53;1.70;;;;;;;7.61;45.56;100726.13;6524368;27;34479;-86
2022/01/28 10:58:05;;;;;;;4.30;1.70;;;;;;;7.56;44.79;100714.16;6532317;27;34314;-87
2022/01/28 11:01:13;;;;;;;3.42;1.50;;;;;;;7.44;45.04;100727.75;6533029;27;32345;-85
2022/01/28 11:04:18;;;;;;;6.20;1.48;;;;;;;7.43;44.75;100733.25;6534445;27;34111;-85
2022/01/28 11:07:21;;;;;;;3.33;1.15;;;;;;;7.32;44.29;100736.97;6506280;27;33746;-85
2022/01/28 11:10:24;;;;;;;4.25;1.67;;;;;;;7.34;44.01;100743.03;6525105;27;34040;-85
2022/01/28 11:13:28;;;;;;;6.95;1.92;;;;;;;7.46;43.88;100739.19;6526572;27;34075;-87
2022/01/28 11:16:32;;;;;;;15.52;1.80;;;;;;;7.48;43.80;100737.16;6530009;27;35267;-86
2022/01/28 11:19:38;;;;;;;4.37;1.60;;;;;;;7.49;44.25;100746.91;6527521;27;35092;-87
2022/01/28 11:22:59;;;;;;;4.68;1.40;;;;;;;7.44;44.81;100753.69;6524842;27;33544;-89
2022/01/28 11:26:06;;;;;;;15.73;1.90;;;;;;;7.43;44.79;100747.50;6525212;27;33885;-88
2022/01/28 11:29:25;;;;;;;3.35;1.67;;;;;;;7.38;45.41;100760.50;6524125;27;34638;-91
2022/01/28 11:32:28;;;;;;;3.35;1.60;;;;;;;7.18;46.00;100766.91;6524228;27;34643;-90
2022/01/28 11:36:03;;;;;;;5.20;1.67;;;;;;;7.02;46.78;100755.00;6523810;27;33946;-87
2022/01/28 11:39:31;;;;;;;4.85;1.50;;;;;;;6.99;47.33;100755.28;6513816;27;34507;-87
2022/01/28 11:42:34;;;;;;;7.03;1.83;;;;;;;7.03;47.24;100737.09;6513906;27;34857;-87
2022/01/28 11:45:42;;;;;;;7.10;1.45;;;;;;;6.85;48.16;100755.75;6524288;27;33707;-85
2022/01/28 11:48:51;;;;;;;7.68;1.98;;;;;;;6.92;48.55;100743.47;6523989;27;33971;-86
2022/01/28 11:51:54;;;;;;;4.10;2.23;;;;;;;7.08;47.90;100755.37;6524306;27;34009;-86
2022/01/28 11:55:17;;;;;;;4.93;1.50;;;;;;;7.01;47.89;100749.78;6524296;27;33987;-86
2022/01/28 11:58:19;;;;;;;7.28;2.22;;;;;;;7.02;48.14;100771.06;6525797;27;33618;-87
2022/01/28 12:01:43;;;;;;;4.65;2.05;;;;;;;6.88;48.72;100771.50;6526223;27;34343;-86
2022/01/28 12:04:47;;;;;;;7.25;1.87;;;;;;;6.73;49.33;100779.16;6526901;27;33627;-87
2022/01/28 12:07:50;;;;;;;5.68;2.15;;;;;;;6.50;50.27;100781.28;6526424;27;33546;-88
2022/01/28 12:10:54;;;;;;;8.63;2.05;;;;;;;6.46;51.17;100785.19;6526832;27;34324;-87
2022/01/28 12:14:05;;;;;;;6.10;1.95;;;;;;;6.49;51.13;100792.09;6526487;27;33905;-83
2022/01/28 12:17:31;;;;;;;4.47;2.30;;;;;;;6.41;51.72;100786.63;6525736;27;34972;-85
2022/01/28 12:20:42;;;;;;;6.72;2.00;;;;;;;6.50;51.06;100791.97;6517831;27;35344;-85
2022/01/28 12:23:46;;;;;;;3.78;1.80;;;;;;;6.64;50.74;100797.88;6530517;27;34100;-86
2022/01/28 12:27:19;;;;;;;6.35;1.52;;;;;;;6.73;50.98;100792.53;6538598;27;33925;-86
2022/01/28 12:30:34;;;;;;;2.97;1.80;;;;;;;6.99;50.71;100779.37;6521747;27;35055;-86
2022/01/28 12:33:43;;;;;;;6.53;1.65;;;;;;;6.93;50.51;100803.19;6527642;27;33953;-86
2022/01/28 12:36:48;;;;;;;4.27;1.80;;;;;;;6.63;51.31;100789.00;6546772;27;34075;-85
2022/01/28 12:39:56;;;;;;;5.00;1.70;;;;;;;6.54;51.88;100788.03;6546865;27;35445;-85
2022/01/28 12:42:59;;;;;;;4.80;2.00;;;;;;;6.50;52.31;100770.56;6536783;27;34346;-84
2022/01/28 12:46:06;;;;;;;4.87;1.85;;;;;;;6.43;52.31;100782.81;6525429;27;33542;-85
2022/01/28 12:49:09;;;;;;;4.37;2.10;;;;;;;6.28;52.80;100789.56;6525616;27;34252;-84
2022/01/28 12:52:12;;;;;;;5.43;1.85;;;;;;;6.27;52.86;100787.88;6524803;27;35462;-84
2022/01/28 12:55:16;;;;;;;4.85;1.73;;;;;;;6.51;52.13;100784.78;6526561;27;34563;-86
2022/01/28 12:58:30;;;;;;;4.40;1.85;;;;;;;6.60;52.14;100789.28;6525654;27;34060;-85
2022/01/28 13:01:34;;;;;;;11.02;2.12;;;;;;;6.62;51.69;100786.47;6528646;27;34151;-85
2022/01/28 13:11:20;;;;;;;4.37;2.00;;;;;;;8.54;47.10;100799.16;6527740;27;34129;-89
2022/01/28 13:14:30;;;;;;;5.43;2.17;;;;;;;9.61;43.80;100789.94;6526531;27;34271;-86
2022/01/28 13:17:39;;;;;;;4.43;1.67;;;;;;;9.69;43.36;100808.81;6528798;27;33944;-86
2022/01/28 13:20:42;;;;;;;8.25;1.90;;;;;;;9.29;44.10;100799.53;6525729;27;35217;-86
2022/01/28 13:23:45;;;;;;;8.30;2.10;;;;;;;8.44;46.11;100805.59;6530604;27;33660;-86
2022/01/28 13:26:53;;;;;;;4.55;1.77;;;;;;;7.91;47.67;100804.50;6529274;27;35043;-87
2022/01/28 13:29:56;;;;;;;4.25;1.67;;;;;;;7.70;47.92;100810.97;6528282;27;33973;-86
2022/01/28 13:33:08;;;;;;;11.90;2.17;;;;;;;7.37;49.11;100820.41;6526654;27;33643;-86
2022/01/28 13:36:11;;;;;;;3.22;1.92;;;;;;;7.52;48.75;100818.12;6527308;27;33699;-86
2022/01/28 13:39:20;;;;;;;4.43;2.00;;;;;;;7.60;48.57;100818.19;6527589;27;33955;-86
2022/01/28 13:42:23;;;;;;;4.95;1.87;;;;;;;7.65;48.38;100837.34;6525857;27;33951;-86
2022/01/28 13:45:38;;;;;;;4.62;1.83;;;;;;;7.68;48.48;100823.66;6526543;27;34725;-87
2022/01/28 13:48:45;;;;;;;6.75;2.10;;;;;;;7.49;48.77;100831.81;6526358;27;33909;-86
2022/01/28 13:51:48;;;;;;;5.35;2.22;;;;;;;7.41;49.24;100819.13;6526072;27;34003;-86
2022/01/28 13:54:51;;;;;;;4.47;1.80;;;;;;;7.21;49.76;100828.22;6525346;27;33748;-85
2022/01/28 13:58:05;;;;;;;6.28;1.92;;;;;;;6.94;50.08;100832.50;6526023;27;34093;-87
2022/01/28 14:01:09;;;;;;;5.03;1.83;;;;;;;6.80;50.66;100836.44;6525213;27;33893;-86
2022/01/28 14:04:21;;;;;;;6.55;2.00;;;;;;;6.67;51.08;100825.19;6526567;27;33628;-86
2022/01/28 14:07:24;;;;;;;5.70;1.85;;;;;;;6.54;51.91;100827.31;6525344;27;33596;-86
2022/01/28 14:10:37;;;;;;;4.87;2.12;;;;;;;6.47;52.08;100823.50;6524394;27;33651;-86
2022/01/28 14:13:40;;;;;;;7.20;2.00;;;;;;;6.40;52.59;100833.91;6526716;27;34724;-85
2022/01/28 14:16:45;;;;;;;7.12;2.05;;;;;;;6.25;53.04;100830.78;6525240;27;33924;-87
2022/01/28 14:19:48;;;;;;;7.15;2.37;;;;;;;6.22;53.13;100838.25;6526811;27;34063;-87
2022/01/28 14:22:51;;;;;;;6.15;2.10;;;;;;;6.03;53.86;100834.56;6560027;27;35435;-87
2022/01/28 14:25:54;;;;;;;5.97;3.10;;;;;;;6.12;53.79;100835.56;6561256;26;35284;-87
